« Back
NWS Peachtree City, Ga » Text Product » ATL Terminal Aerodrome Forecast


Printer-friendly Version
Current Version              Previous Versions:   1  2  3  4  5  6  7  8  9  

Terminal Aerodrome Forecast

716
FTUS42 KFFC 251408 AAA
TAFATL
TAF AMD
KATL 251408Z 2514/2618 34010KT P6SM SCT100 BKN250
     FM251500 33009KT P6SM BKN120
     FM252100 33007KT P6SM OVC080
     FM260400 32009KT P6SM -SHRA OVC030
     FM260700 31008KT 5SM -SHRA BR OVC015
     FM261200 31007KT 6SM BR OVC025
     FM261600 30008KT P6SM SCT035=



USA.gov is the U.S. government's official web portal to all federal, state and local government web resources and services.